Terminal Aerodrome Forecast
Issued by NWS Blacksburg, VA

Home | Current Version | Previous Version | Text Only | Print | Product List | Glossary On
Versions: 1 2 3 4 5 6 7 8 9 10 11 12 13 14 15 16 17 18 19 20 21 22 23
000
FTUS41 KRNK 212340
TAFDAN
TAF
KDAN 212340Z 2200/2224 05004KT P6SM BKN050
     FM220700 04005KT P6SM -RA OVC025
     FM221000 04007KT 3SM -RA BR SCT004 OVC015
     FM221600 04005KT 5SM BR OVC015=

USA.gov is the U.S. government's official web portal to all federal, state and local government web resources and services.